Rhapsody Of The Seas — C6UA2 — position and weather

sailwx.info

Track history (hours):
 
Tides and Currents Weather Stations Pressure Air Temp Water Temp Dewpoint Dewpoint Depression Visibility Wind Speed Wind Dir Waves Ship Positions

Rhapsody Of The Seas

Last reported at 2016-Feb-07 22:14 UTC. Time now 2016-Feb-08 17:03 UTC.
Position S 24°52' W 046°43'.

Type: Passenger vessel. MMSI: 311805000.

Date/timePositionNaut miles runAvg speedWind from/ knotsBaromVisibWave heightAir tempDewpointWater temp
2016-Feb-07 22:14S 24°52' W 046°43'58 4.2
2016-Feb-07 08:26S 23°58' W 046°18'4 5.1
2016-Feb-07 07:33S 24°02' W 046°21'1111.4
2016-Feb-07 06:34S 24°12' W 046°25'1414.2
2016-Feb-07 05:33S 24°25' W 046°31'1414.0
2016-Feb-07 04:33S 24°38' W 046°37'1414.0
2016-Feb-07 03:31S 24°52' W 046°43'77415.5
2016-Feb-05 01:26S 35°04' W 055°50'1314.5
2016-Feb-05 00:33S 35°01' W 056°05'8 8.1
2016-Feb-04 23:33S 34°56' W 056°13'77 4.2
2016-Feb-04 05:15S 34°44' W 057°47'5 7.3
2016-Feb-04 04:33S 34°42' W 057°53'1514.9
2016-Feb-04 03:33S 34°37' W 058°10'1010.0
2016-Feb-04 02:33S 34°35' W 058°22'0 0.2
2016-Feb-04 01:33S 34°35' W 058°22'0 0.0
2016-Feb-03 20:09S 34°35' W 058°22'0 0.1
2016-Feb-03 19:33S 34°35' W 058°22'9 0.9
2016-Feb-03 09:33S 34°37' W 058°12'1212.3
2016-Feb-03 08:33S 34°41' W 057°58'1010.5
2016-Feb-03 07:33S 34°44' W 057°45'  
2016-Feb-01 03:28S 26°14' W 047°20'1819.7
2016-Feb-01 02:33S 25°57' W 047°12'2019.8
2016-Feb-01 01:33S 25°39' W 047°04'2019.7
2016-Feb-01 00:33S 25°21' W 046°56'2019.7
2016-Jan-31 23:33S 25°02' W 046°48'2019.7
2016-Jan-31 22:33S 24°44' W 046°39'2019.8
2016-Jan-31 21:33S 24°26' W 046°31'2019.8
2016-Jan-31 20:33S 24°07' W 046°23'1110.7
2016-Jan-31 19:32S 23°58' W 046°18'1 0.1
2016-Jan-31 08:12S 23°57' W 046°19'3 4.5
2016-Jan-31 07:33S 23°60' W 046°20'1616.1
2016-Jan-31 06:33S 24°14' W 046°27'1919.0
2016-Jan-31 05:33S 24°32' W 046°34'1919.3
2016-Jan-31 04:33S 24°50' W 046°43'1919.2
2016-Jan-31 03:33S 25°08' W 046°50'1919.5
2016-Jan-31 02:33S 25°26' W 046°58'1817.5
2016-Jan-31 01:33S 25°42' W 047°05'1615.9
2016-Jan-31 00:33S 25°57' W 047°12'1615.8
2016-Jan-30 23:33S 26°12' W 047°18'1616.1
2016-Jan-30 22:32S 26°27' W 047°25'1616.0
2016-Jan-30 21:33S 26°41' W 047°32'  
Track history (hours):
 
Tides and Currents Weather Stations Pressure Air Temp Water Temp Dewpoint Dewpoint Depression Visibility Wind Speed Wind Dir Waves Ship Positions

Rhapsody Of The Seas

Last reported at 2016-Feb-07 22:14 UTC. Time now 2016-Feb-08 17:03 UTC.
Position S 24°52' W 046°43'.

Type: Passenger vessel. MMSI: 311805000.

Date/timePositionNaut miles runAvg speedWind from/ knotsBaromVisibWave heightAir tempDewpointWater temp
2016-Feb-07 22:14S 24°52' W 046°43'58 4.2
2016-Feb-07 08:26S 23°58' W 046°18'4 5.1
2016-Feb-07 07:33S 24°02' W 046°21'1111.4
2016-Feb-07 06:34S 24°12' W 046°25'1414.2
2016-Feb-07 05:33S 24°25' W 046°31'1414.0
2016-Feb-07 04:33S 24°38' W 046°37'1414.0
2016-Feb-07 03:31S 24°52' W 046°43'77415.5
2016-Feb-05 01:26S 35°04' W 055°50'1314.5
2016-Feb-05 00:33S 35°01' W 056°05'8 8.1
2016-Feb-04 23:33S 34°56' W 056°13'77 4.2
2016-Feb-04 05:15S 34°44' W 057°47'5 7.3
2016-Feb-04 04:33S 34°42' W 057°53'1514.9
2016-Feb-04 03:33S 34°37' W 058°10'1010.0
2016-Feb-04 02:33S 34°35' W 058°22'0 0.2
2016-Feb-04 01:33S 34°35' W 058°22'0 0.0
2016-Feb-03 20:09S 34°35' W 058°22'0 0.1
2016-Feb-03 19:33S 34°35' W 058°22'9 0.9
2016-Feb-03 09:33S 34°37' W 058°12'1212.3
2016-Feb-03 08:33S 34°41' W 057°58'1010.5
2016-Feb-03 07:33S 34°44' W 057°45'  
2016-Feb-01 03:28S 26°14' W 047°20'1819.7
2016-Feb-01 02:33S 25°57' W 047°12'2019.8
2016-Feb-01 01:33S 25°39' W 047°04'2019.7
2016-Feb-01 00:33S 25°21' W 046°56'2019.7
2016-Jan-31 23:33S 25°02' W 046°48'2019.7
2016-Jan-31 22:33S 24°44' W 046°39'2019.8
2016-Jan-31 21:33S 24°26' W 046°31'2019.8
2016-Jan-31 20:33S 24°07' W 046°23'1110.7
2016-Jan-31 19:32S 23°58' W 046°18'1 0.1
2016-Jan-31 08:12S 23°57' W 046°19'3 4.5
2016-Jan-31 07:33S 23°60' W 046°20'1616.1
2016-Jan-31 06:33S 24°14' W 046°27'1919.0
2016-Jan-31 05:33S 24°32' W 046°34'1919.3
2016-Jan-31 04:33S 24°50' W 046°43'1919.2
2016-Jan-31 03:33S 25°08' W 046°50'1919.5
2016-Jan-31 02:33S 25°26' W 046°58'1817.5
2016-Jan-31 01:33S 25°42' W 047°05'1615.9
2016-Jan-31 00:33S 25°57' W 047°12'1615.8
2016-Jan-30 23:33S 26°12' W 047°18'1616.1
2016-Jan-30 22:32S 26°27' W 047°25'1616.0
2016-Jan-30 21:33S 26°41' W 047°32'  

Dump ship's entire track history